sensor_id;sensor_type;location;lat;lon;timestamp;P1;P2;P0
69144;PMS7003;56251;50.324;17.574;2023-03-01T00:01:52;23;15;13
69144;PMS7003;56251;50.324;17.574;2023-03-01T00:01:59;23;15;13
69144;PMS7003;56251;50.324;17.574;2023-03-01T00:04:58;19;19;13
69144;PMS7003;56251;50.324;17.574;2023-03-01T00:05:11;27;21;15
69144;PMS7003;56251;50.324;17.574;2023-03-01T00:08:04;20;17;10
69144;PMS7003;56251;50.324;17.574;2023-03-01T00:08:18;20;17;10
69144;PMS7003;56251;50.324;17.574;2023-03-01T00:11:15;30;29;18
69144;PMS7003;56251;50.324;17.574;2023-03-01T00:11:25;30;29;18
69144;PMS7003;56251;50.324;17.574;2023-03-01T00:14:22;37;23;15
69144;PMS7003;56251;50.324;17.574;2023-03-01T00:14:32;37;23;15
69144;PMS7003;56251;50.324;17.574;2023-03-01T00:17:29;22;19;14
69144;PMS7003;56251;50.324;17.574;2023-03-01T00:17:39;22;19;14
69144;PMS7003;56251;50.324;17.574;2023-03-01T00:20:38;19;19;13
69144;PMS7003;56251;50.324;17.574;2023-03-01T00:20:52;19;19;13
69144;PMS7003;56251;50.324;17.574;2023-03-01T00:23:44;42;34;17
69144;PMS7003;56251;50.324;17.574;2023-03-01T00:23:59;22;22;15
69144;PMS7003;56251;50.324;17.574;2023-03-01T00:26:54;17;17;13
69144;PMS7003;56251;50.324;17.574;2023-03-01T00:27:05;17;17;13
69144;PMS7003;56251;50.324;17.574;2023-03-01T00:30:02;33;15;12
69144;PMS7003;56251;50.324;17.574;2023-03-01T00:30:11;33;15;12
69144;PMS7003;56251;50.324;17.574;2023-03-01T00:33:08;33;23;11
69144;PMS7003;56251;50.324;17.574;2023-03-01T00:33:18;33;23;11
69144;PMS7003;56251;50.324;17.574;2023-03-01T00:36:15;16;16;9
69144;PMS7003;56251;50.324;17.574;2023-03-01T00:36:28;16;16;9
69144;PMS7003;56251;50.324;17.574;2023-03-01T00:39:25;21;17;10
69144;PMS7003;56251;50.324;17.574;2023-03-01T00:39:32;21;17;10
69144;PMS7003;56251;50.324;17.574;2023-03-01T00:42:32;33;28;17
69144;PMS7003;56251;50.324;17.574;2023-03-01T00:42:44;19;12;9
69144;PMS7003;56251;50.324;17.574;2023-03-01T00:45:38;24;22;17
69144;PMS7003;56251;50.324;17.574;2023-03-01T00:45:50;24;22;17
69144;PMS7003;56251;50.324;17.574;2023-03-01T00:48:45;27;25;13
69144;PMS7003;56251;50.324;17.574;2023-03-01T00:48:57;27;25;13
69144;PMS7003;56251;50.324;17.574;2023-03-01T00:51:51;16;16;11
69144;PMS7003;56251;50.324;17.574;2023-03-01T00:52:03;16;16;11
69144;PMS7003;56251;50.324;17.574;2023-03-01T00:54:58;16;16;11
69144;PMS7003;56251;50.324;17.574;2023-03-01T00:55:10;16;16;11
69144;PMS7003;56251;50.324;17.574;2023-03-01T00:58:04;13;11;6
69144;PMS7003;56251;50.324;17.574;2023-03-01T00:58:17;27;26;14
69144;PMS7003;56251;50.324;17.574;2023-03-01T01:01:18;32;19;10
69144;PMS7003;56251;50.324;17.574;2023-03-01T01:01:25;32;19;10
69144;PMS7003;56251;50.324;17.574;2023-03-01T01:04:24;22;20;13
69144;PMS7003;56251;50.324;17.574;2023-03-01T01:04:36;22;20;13
69144;PMS7003;56251;50.324;17.574;2023-03-01T01:07:31;27;23;14
69144;PMS7003;56251;50.324;17.574;2023-03-01T01:07:42;27;23;14
69144;PMS7003;56251;50.324;17.574;2023-03-01T01:10:37;30;20;12
69144;PMS7003;56251;50.324;17.574;2023-03-01T01:10:48;30;20;12
69144;PMS7003;56251;50.324;17.574;2023-03-01T01:13:44;22;19;10
69144;PMS7003;56251;50.324;17.574;2023-03-01T01:13:57;34;29;15
69144;PMS7003;56251;50.324;17.574;2023-03-01T01:16:51;26;26;17
69144;PMS7003;56251;50.324;17.574;2023-03-01T01:17:04;26;26;17
69144;PMS7003;56251;50.324;17.574;2023-03-01T01:19:57;17;17;8
69144;PMS7003;56251;50.324;17.574;2023-03-01T01:20:11;17;17;8
69144;PMS7003;56251;50.324;17.574;2023-03-01T01:23:05;22;20;12
69144;PMS7003;56251;50.324;17.574;2023-03-01T01:23:17;22;20;12
69144;PMS7003;56251;50.324;17.574;2023-03-01T01:26:16;35;32;18
69144;PMS7003;56251;50.324;17.574;2023-03-01T01:26:24;35;32;18
69144;PMS7003;56251;50.324;17.574;2023-03-01T01:29:25;33;28;14
69144;PMS7003;56251;50.324;17.574;2023-03-01T01:29:31;33;28;14
69144;PMS7003;56251;50.324;17.574;2023-03-01T01:32:31;31;30;22
69144;PMS7003;56251;50.324;17.574;2023-03-01T01:32:43;50;38;22
69144;PMS7003;56251;50.324;17.574;2023-03-01T01:35:37;34;24;16
69144;PMS7003;56251;50.324;17.574;2023-03-01T01:35:50;34;24;16
69144;PMS7003;56251;50.324;17.574;2023-03-01T01:38:44;33;29;17
69144;PMS7003;56251;50.324;17.574;2023-03-01T01:38:56;33;29;17
69144;PMS7003;56251;50.324;17.574;2023-03-01T01:41:50;30;29;18
69144;PMS7003;56251;50.324;17.574;2023-03-01T01:42:03;30;29;18
69144;PMS7003;56251;50.324;17.574;2023-03-01T01:45:38;24;23;16
69144;PMS7003;56251;50.324;17.574;2023-03-01T01:48:39;26;21;16
69144;PMS7003;56251;50.324;17.574;2023-03-01T01:48:47;26;21;16
69144;PMS7003;56251;50.324;17.574;2023-03-01T01:51:47;20;16;13
69144;PMS7003;56251;50.324;17.574;2023-03-01T01:51:58;20;16;13
69144;PMS7003;56251;50.324;17.574;2023-03-01T01:55:22;25;23;13
69144;PMS7003;56251;50.324;17.574;2023-03-01T01:58:21;20;20;12
69144;PMS7003;56251;50.324;17.574;2023-03-01T01:58:29;20;20;12
69144;PMS7003;56251;50.324;17.574;2023-03-01T02:01:27;26;20;15
69144;PMS7003;56251;50.324;17.574;2023-03-01T02:01:36;26;20;15
69144;PMS7003;56251;50.324;17.574;2023-03-01T02:04:33;20;19;12
69144;PMS7003;56251;50.324;17.574;2023-03-01T02:04:47;20;19;12
69144;PMS7003;56251;50.324;17.574;2023-03-01T02:07:40;26;25;12
69144;PMS7003;56251;50.324;17.574;2023-03-01T02:07:54;26;25;12
69144;PMS7003;56251;50.324;17.574;2023-03-01T02:10:48;20;18;11
69144;PMS7003;56251;50.324;17.574;2023-03-01T02:11:02;20;18;11
69144;PMS7003;56251;50.324;17.574;2023-03-01T02:13:55;15;13;8
69144;PMS7003;56251;50.324;17.574;2023-03-01T02:14:11;15;13;8
69144;PMS7003;56251;50.324;17.574;2023-03-01T02:17:02;17;14;9
69144;PMS7003;56251;50.324;17.574;2023-03-01T02:17:18;17;14;9
69144;PMS7003;56251;50.324;17.574;2023-03-01T02:23:40;18;18;13
69144;PMS7003;56251;50.324;17.574;2023-03-01T02:24:20;20;11;8
69144;PMS7003;56251;50.324;17.574;2023-03-01T02:26:47;21;20;12
69144;PMS7003;56251;50.324;17.574;2023-03-01T02:27:36;16;16;12
69144;PMS7003;56251;50.324;17.574;2023-03-01T02:29:57;17;16;11
69144;PMS7003;56251;50.324;17.574;2023-03-01T02:30:46;26;17;12
69144;PMS7003;56251;50.324;17.574;2023-03-01T02:33:04;20;17;10
69144;PMS7003;56251;50.324;17.574;2023-03-01T02:34:31;21;19;9
69144;PMS7003;56251;50.324;17.574;2023-03-01T02:36:14;10;10;8
69144;PMS7003;56251;50.324;17.574;2023-03-01T02:37:39;13;12;8
69144;PMS7003;56251;50.324;17.574;2023-03-01T02:39:22;22;19;8
69144;PMS7003;56251;50.324;17.574;2023-03-01T02:40:47;20;17;10
69144;PMS7003;56251;50.324;17.574;2023-03-01T02:42:35;15;14;10
69144;PMS7003;56251;50.324;17.574;2023-03-01T02:43:55;25;19;13
69144;PMS7003;56251;50.324;17.574;2023-03-01T02:45:51;25;22;12
69144;PMS7003;56251;50.324;17.574;2023-03-01T02:47:01;16;15;12
69144;PMS7003;56251;50.324;17.574;2023-03-01T02:48:57;15;15;9
69144;PMS7003;56251;50.324;17.574;2023-03-01T02:50:12;23;14;8
69144;PMS7003;56251;50.324;17.574;2023-03-01T02:53:39;31;23;14
69144;PMS7003;56251;50.324;17.574;2023-03-01T02:55:30;19;18;10
69144;PMS7003;56251;50.324;17.574;2023-03-01T02:56:48;23;19;11
69144;PMS7003;56251;50.324;17.574;2023-03-01T02:58:36;18;18;10
69144;PMS7003;56251;50.324;17.574;2023-03-01T02:59:55;24;23;15
69144;PMS7003;56251;50.324;17.574;2023-03-01T03:01:46;17;17;8
69144;PMS7003;56251;50.324;17.574;2023-03-01T03:03:03;26;19;14
69144;PMS7003;56251;50.324;17.574;2023-03-01T03:04:53;18;16;9
69144;PMS7003;56251;50.324;17.574;2023-03-01T03:06:11;22;18;11
69144;PMS7003;56251;50.324;17.574;2023-03-01T03:08:00;19;14;10
69144;PMS7003;56251;50.324;17.574;2023-03-01T03:09:18;27;19;12
69144;PMS7003;56251;50.324;17.574;2023-03-01T03:11:07;26;10;7
69144;PMS7003;56251;50.324;17.574;2023-03-01T03:12:24;34;17;10
69144;PMS7003;56251;50.324;17.574;2023-03-01T03:14:14;20;15;9
69144;PMS7003;56251;50.324;17.574;2023-03-01T03:15:31;17;16;11
69144;PMS7003;56251;50.324;17.574;2023-03-01T03:17:21;23;18;12
69144;PMS7003;56251;50.324;17.574;2023-03-01T03:18:39;21;18;12
69144;PMS7003;56251;50.324;17.574;2023-03-01T03:20:33;24;22;13
69144;PMS7003;56251;50.324;17.574;2023-03-01T03:21:45;17;14;10
69144;PMS7003;56251;50.324;17.574;2023-03-01T03:23:40;16;13;9
69144;PMS7003;56251;50.324;17.574;2023-03-01T03:24:52;19;16;11
69144;PMS7003;56251;50.324;17.574;2023-03-01T03:26:46;8;4;0
69144;PMS7003;56251;50.324;17.574;2023-03-01T03:27:58;19;17;9
69144;PMS7003;56251;50.324;17.574;2023-03-01T03:29:52;23;23;13
69144;PMS7003;56251;50.324;17.574;2023-03-01T03:31:05;21;21;11
69144;PMS7003;56251;50.324;17.574;2023-03-01T03:32:58;19;16;11
69144;PMS7003;56251;50.324;17.574;2023-03-01T03:34:12;28;22;12
69144;PMS7003;56251;50.324;17.574;2023-03-01T03:36:06;18;17;8
69144;PMS7003;56251;50.324;17.574;2023-03-01T03:37:20;32;31;12
69144;PMS7003;56251;50.324;17.574;2023-03-01T03:39:18;20;16;8
69144;PMS7003;56251;50.324;17.574;2023-03-01T03:41:06;21;21;13
69144;PMS7003;56251;50.324;17.574;2023-03-01T03:42:24;30;19;13
69144;PMS7003;56251;50.324;17.574;2023-03-01T03:44:13;30;22;11
69144;PMS7003;56251;50.324;17.574;2023-03-01T03:45:30;14;12;9
69144;PMS7003;56251;50.324;17.574;2023-03-01T03:47:20;22;16;11
69144;PMS7003;56251;50.324;17.574;2023-03-01T03:48:39;25;19;11
69144;PMS7003;56251;50.324;17.574;2023-03-01T03:50:32;34;30;19
69144;PMS7003;56251;50.324;17.574;2023-03-01T03:51:46;17;15;9
69144;PMS7003;56251;50.324;17.574;2023-03-01T03:53:39;22;17;12
69144;PMS7003;56251;50.324;17.574;2023-03-01T03:54:59;29;26;12
69144;PMS7003;56251;50.324;17.574;2023-03-01T03:56:46;25;25;15
69144;PMS7003;56251;50.324;17.574;2023-03-01T03:58:06;29;24;16
69144;PMS7003;56251;50.324;17.574;2023-03-01T03:59:53;27;23;14
69144;PMS7003;56251;50.324;17.574;2023-03-01T04:01:13;33;16;11
69144;PMS7003;56251;50.324;17.574;2023-03-01T04:02:59;36;26;15
69144;PMS7003;56251;50.324;17.574;2023-03-01T04:04:20;26;21;12
69144;PMS7003;56251;50.324;17.574;2023-03-01T04:06:07;27;20;12
69144;PMS7003;56251;50.324;17.574;2023-03-01T04:07:26;18;18;11
69144;PMS7003;56251;50.324;17.574;2023-03-01T04:09:13;27;25;16
69144;PMS7003;56251;50.324;17.574;2023-03-01T04:10:37;17;17;12
69144;PMS7003;56251;50.324;17.574;2023-03-01T04:12:19;26;20;12
69144;PMS7003;56251;50.324;17.574;2023-03-01T04:13:51;23;16;12
69144;PMS7003;56251;50.324;17.574;2023-03-01T04:15:27;16;16;10
69144;PMS7003;56251;50.324;17.574;2023-03-01T04:16:58;30;19;10
69144;PMS7003;56251;50.324;17.574;2023-03-01T04:18:34;22;22;13
69144;PMS7003;56251;50.324;17.574;2023-03-01T04:20:05;20;19;13
69144;PMS7003;56251;50.324;17.574;2023-03-01T04:21:41;38;31;18
69144;PMS7003;56251;50.324;17.574;2023-03-01T04:23:13;24;24;14
69144;PMS7003;56251;50.324;17.574;2023-03-01T04:24:47;21;21;13
69144;PMS7003;56251;50.324;17.574;2023-03-01T04:26:25;26;23;16
69144;PMS7003;56251;50.324;17.574;2023-03-01T04:27:54;19;18;12
69144;PMS7003;56251;50.324;17.574;2023-03-01T04:29:32;32;24;16
69144;PMS7003;56251;50.324;17.574;2023-03-01T04:31:05;24;22;11
69144;PMS7003;56251;50.324;17.574;2023-03-01T04:32:44;32;15;9
69144;PMS7003;56251;50.324;17.574;2023-03-01T04:34:22;25;25;18
69144;PMS7003;56251;50.324;17.574;2023-03-01T04:35:50;25;21;12
69144;PMS7003;56251;50.324;17.574;2023-03-01T04:37:28;33;30;15
69144;PMS7003;56251;50.324;17.574;2023-03-01T04:38:57;29;18;13
69144;PMS7003;56251;50.324;17.574;2023-03-01T04:40:35;23;19;14
69144;PMS7003;56251;50.324;17.574;2023-03-01T04:42:03;32;22;11
69144;PMS7003;56251;50.324;17.574;2023-03-01T04:43:46;25;23;11
69144;PMS7003;56251;50.324;17.574;2023-03-01T04:45:10;22;22;15
69144;PMS7003;56251;50.324;17.574;2023-03-01T04:46:54;26;19;15
69144;PMS7003;56251;50.324;17.574;2023-03-01T04:48:19;25;24;14
69144;PMS7003;56251;50.324;17.574;2023-03-01T04:50:00;36;33;17
69144;PMS7003;56251;50.324;17.574;2023-03-01T04:51:31;20;20;15
69144;PMS7003;56251;50.324;17.574;2023-03-01T04:53:06;34;22;13
69144;PMS7003;56251;50.324;17.574;2023-03-01T04:54:40;39;34;22
69144;PMS7003;56251;50.324;17.574;2023-03-01T04:56:13;24;24;19
69144;PMS7003;56251;50.324;17.574;2023-03-01T04:57:46;20;19;14
69144;PMS7003;56251;50.324;17.574;2023-03-01T04:59:19;20;16;10
69144;PMS7003;56251;50.324;17.574;2023-03-01T05:00:54;24;22;12
69144;PMS7003;56251;50.324;17.574;2023-03-01T05:02:36;44;37;22
69144;PMS7003;56251;50.324;17.574;2023-03-01T05:04:01;25;25;12
69144;PMS7003;56251;50.324;17.574;2023-03-01T05:05:42;23;21;15
69144;PMS7003;56251;50.324;17.574;2023-03-01T05:07:09;22;21;15
69144;PMS7003;56251;50.324;17.574;2023-03-01T05:08:50;31;28;18
69144;PMS7003;56251;50.324;17.574;2023-03-01T05:10:20;50;37;23
69144;PMS7003;56251;50.324;17.574;2023-03-01T05:11:56;33;30;16
69144;PMS7003;56251;50.324;17.574;2023-03-01T05:13:28;40;34;20
69144;PMS7003;56251;50.324;17.574;2023-03-01T05:15:03;30;25;19
69144;PMS7003;56251;50.324;17.574;2023-03-01T05:16:35;32;29;13
69144;PMS7003;56251;50.324;17.574;2023-03-01T05:18:12;42;30;19
69144;PMS7003;56251;50.324;17.574;2023-03-01T05:19:42;36;27;16
69144;PMS7003;56251;50.324;17.574;2023-03-01T05:21:24;37;32;18
69144;PMS7003;56251;50.324;17.574;2023-03-01T05:22:51;36;28;20
69144;PMS7003;56251;50.324;17.574;2023-03-01T05:24:32;51;35;22
69144;PMS7003;56251;50.324;17.574;2023-03-01T05:26:00;49;40;24
69144;PMS7003;56251;50.324;17.574;2023-03-01T05:27:39;33;31;18
69144;PMS7003;56251;50.324;17.574;2023-03-01T05:29:10;21;21;15
69144;PMS7003;56251;50.324;17.574;2023-03-01T05:30:46;37;29;15
69144;PMS7003;56251;50.324;17.574;2023-03-01T05:32:16;46;34;21
69144;PMS7003;56251;50.324;17.574;2023-03-01T05:33:52;53;35;20
69144;PMS7003;56251;50.324;17.574;2023-03-01T05:35:23;65;39;21
69144;PMS7003;56251;50.324;17.574;2023-03-01T05:36:59;50;40;22
69144;PMS7003;56251;50.324;17.574;2023-03-01T05:38:29;55;39;22
69144;PMS7003;56251;50.324;17.574;2023-03-01T05:40:05;56;45;24
69144;PMS7003;56251;50.324;17.574;2023-03-01T05:41:36;57;40;22
69144;PMS7003;56251;50.324;17.574;2023-03-01T05:43:14;67;49;27
69144;PMS7003;56251;50.324;17.574;2023-03-01T05:44:45;56;41;25
69144;PMS7003;56251;50.324;17.574;2023-03-01T05:46:22;49;40;24
69144;PMS7003;56251;50.324;17.574;2023-03-01T05:47:51;61;45;24
69144;PMS7003;56251;50.324;17.574;2023-03-01T05:49:29;75;53;29
69144;PMS7003;56251;50.324;17.574;2023-03-01T05:50:59;47;40;23
69144;PMS7003;56251;50.324;17.574;2023-03-01T05:52:37;45;37;20
69144;PMS7003;56251;50.324;17.574;2023-03-01T05:54:06;29;27;19
69144;PMS7003;56251;50.324;17.574;2023-03-01T05:55:47;50;34;21
69144;PMS7003;56251;50.324;17.574;2023-03-01T05:57:13;60;43;26
69144;PMS7003;56251;50.324;17.574;2023-03-01T05:58:55;45;28;17
69144;PMS7003;56251;50.324;17.574;2023-03-01T06:00:20;22;17;0
69144;PMS7003;56251;50.324;17.574;2023-03-01T06:02:01;37;30;18
69144;PMS7003;56251;50.324;17.574;2023-03-01T06:03:32;51;36;22
69144;PMS7003;56251;50.324;17.574;2023-03-01T06:05:09;26;20;10
69144;PMS7003;56251;50.324;17.574;2023-03-01T06:06:39;39;27;17
69144;PMS7003;56251;50.324;17.574;2023-03-01T06:08:16;29;27;14
69144;PMS7003;56251;50.324;17.574;2023-03-01T06:09:45;39;34;20
69144;PMS7003;56251;50.324;17.574;2023-03-01T06:11:22;31;25;14
69144;PMS7003;56251;50.324;17.574;2023-03-01T06:12:51;39;33;20
69144;PMS7003;56251;50.324;17.574;2023-03-01T06:14:35;42;33;20
69144;PMS7003;56251;50.324;17.574;2023-03-01T06:15:59;49;40;23
69144;PMS7003;56251;50.324;17.574;2023-03-01T06:17:42;41;30;20
69144;PMS7003;56251;50.324;17.574;2023-03-01T06:19:05;49;30;19
69144;PMS7003;56251;50.324;17.574;2023-03-01T06:20:52;48;36;25
69144;PMS7003;56251;50.324;17.574;2023-03-01T06:22:11;28;23;17
69144;PMS7003;56251;50.324;17.574;2023-03-01T06:23:59;32;31;16
69144;PMS7003;56251;50.324;17.574;2023-03-01T06:25:20;45;35;23
69144;PMS7003;56251;50.324;17.574;2023-03-01T06:27:06;44;34;20
69144;PMS7003;56251;50.324;17.574;2023-03-01T06:28:27;34;27;16
69144;PMS7003;56251;50.324;17.574;2023-03-01T06:30:13;54;42;24
69144;PMS7003;56251;50.324;17.574;2023-03-01T06:31:33;56;42;25
69144;PMS7003;56251;50.324;17.574;2023-03-01T06:33:26;38;33;22
69144;PMS7003;56251;50.324;17.574;2023-03-01T06:34:40;40;25;18
69144;PMS7003;56251;50.324;17.574;2023-03-01T06:36:33;57;42;25
69144;PMS7003;56251;50.324;17.574;2023-03-01T06:37:52;40;30;19
69144;PMS7003;56251;50.324;17.574;2023-03-01T06:39:39;47;34;23
69144;PMS7003;56251;50.324;17.574;2023-03-01T06:40:58;34;31;20
69144;PMS7003;56251;50.324;17.574;2023-03-01T06:42:47;49;39;25
69144;PMS7003;56251;50.324;17.574;2023-03-01T06:44:06;54;40;23
69144;PMS7003;56251;50.324;17.574;2023-03-01T06:45:55;41;31;22
69144;PMS7003;56251;50.324;17.574;2023-03-01T06:47:12;29;26;17
69144;PMS7003;56251;50.324;17.574;2023-03-01T06:49:01;40;36;23
69144;PMS7003;56251;50.324;17.574;2023-03-01T06:50:18;24;24;15
69144;PMS7003;56251;50.324;17.574;2023-03-01T06:52:14;36;28;19
69144;PMS7003;56251;50.324;17.574;2023-03-01T06:53:25;48;41;23
69144;PMS7003;56251;50.324;17.574;2023-03-01T06:55:20;50;34;22
69144;PMS7003;56251;50.324;17.574;2023-03-01T06:56:31;50;37;21
69144;PMS7003;56251;50.324;17.574;2023-03-01T06:58:26;37;32;20
69144;PMS7003;56251;50.324;17.574;2023-03-01T06:59:38;45;37;20
69144;PMS7003;56251;50.324;17.574;2023-03-01T07:01:33;23;18;11
69144;PMS7003;56251;50.324;17.574;2023-03-01T07:02:44;33;31;20
69144;PMS7003;56251;50.324;17.574;2023-03-01T07:04:39;42;27;20
69144;PMS7003;56251;50.324;17.574;2023-03-01T07:05:50;38;32;21
69144;PMS7003;56251;50.324;17.574;2023-03-01T07:07:46;35;31;15
69144;PMS7003;56251;50.324;17.574;2023-03-01T07:09:00;34;31;13
69144;PMS7003;56251;50.324;17.574;2023-03-01T07:10:58;30;27;14
69144;PMS7003;56251;50.324;17.574;2023-03-01T07:12:06;38;32;16
69144;PMS7003;56251;50.324;17.574;2023-03-01T07:14:03;24;22;11
69144;PMS7003;56251;50.324;17.574;2023-03-01T07:15:14;29;28;18
69144;PMS7003;56251;50.324;17.574;2023-03-01T07:17:10;43;32;21
69144;PMS7003;56251;50.324;17.574;2023-03-01T07:18:20;33;29;19
69144;PMS7003;56251;50.324;17.574;2023-03-01T07:20:17;29;28;16
69144;PMS7003;56251;50.324;17.574;2023-03-01T07:21:27;37;33;18
69144;PMS7003;56251;50.324;17.574;2023-03-01T07:23:24;34;30;19
69144;PMS7003;56251;50.324;17.574;2023-03-01T07:24:33;27;23;13
69144;PMS7003;56251;50.324;17.574;2023-03-01T07:26:30;44;34;21
69144;PMS7003;56251;50.324;17.574;2023-03-01T07:27:39;17;15;14
69144;PMS7003;56251;50.324;17.574;2023-03-01T07:29:37;29;28;17
69144;PMS7003;56251;50.324;17.574;2023-03-01T07:30:46;33;30;19
69144;PMS7003;56251;50.324;17.574;2023-03-01T07:32:44;37;33;20
69144;PMS7003;56251;50.324;17.574;2023-03-01T07:33:52;37;33;22
69144;PMS7003;56251;50.324;17.574;2023-03-01T07:35:55;29;28;17
69144;PMS7003;56251;50.324;17.574;2023-03-01T07:36:58;40;34;21
69144;PMS7003;56251;50.324;17.574;2023-03-01T07:39:02;37;34;20
69144;PMS7003;56251;50.324;17.574;2023-03-01T07:40:05;35;31;19
69144;PMS7003;56251;50.324;17.574;2023-03-01T07:42:12;40;31;20
69144;PMS7003;56251;50.324;17.574;2023-03-01T07:43:18;33;29;19
69144;PMS7003;56251;50.324;17.574;2023-03-01T07:45:19;41;36;22
69144;PMS7003;56251;50.324;17.574;2023-03-01T07:46:26;43;35;22
69144;PMS7003;56251;50.324;17.574;2023-03-01T07:48:25;31;26;18
69144;PMS7003;56251;50.324;17.574;2023-03-01T07:49:32;44;31;22
69144;PMS7003;56251;50.324;17.574;2023-03-01T07:51:32;29;28;17
69144;PMS7003;56251;50.324;17.574;2023-03-01T07:52:38;38;26;19
69144;PMS7003;56251;50.324;17.574;2023-03-01T07:54:38;26;22;16
69144;PMS7003;56251;50.324;17.574;2023-03-01T07:55:45;34;28;18
69144;PMS7003;56251;50.324;17.574;2023-03-01T07:57:45;33;31;19
69144;PMS7003;56251;50.324;17.574;2023-03-01T07:58:51;47;36;19
69144;PMS7003;56251;50.324;17.574;2023-03-01T08:00:51;36;32;21
69144;PMS7003;56251;50.324;17.574;2023-03-01T08:01:58;42;35;23
69144;PMS7003;56251;50.324;17.574;2023-03-01T08:03:57;40;36;23
69144;PMS7003;56251;50.324;17.574;2023-03-01T08:05:04;38;31;22
69144;PMS7003;56251;50.324;17.574;2023-03-01T08:07:05;32;29;20
69144;PMS7003;56251;50.324;17.574;2023-03-01T08:08:11;34;30;19
69144;PMS7003;56251;50.324;17.574;2023-03-01T08:10:11;38;33;21
69144;PMS7003;56251;50.324;17.574;2023-03-01T08:11:17;43;35;22
69144;PMS7003;56251;50.324;17.574;2023-03-01T08:13:17;45;32;20
69144;PMS7003;56251;50.324;17.574;2023-03-01T08:14:23;49;37;27
69144;PMS7003;56251;50.324;17.574;2023-03-01T08:16:30;41;36;24
69144;PMS7003;56251;50.324;17.574;2023-03-01T08:17:30;41;36;24
69144;PMS7003;56251;50.324;17.574;2023-03-01T08:19:38;50;32;21
69144;PMS7003;56251;50.324;17.574;2023-03-01T08:20:36;47;37;24
69144;PMS7003;56251;50.324;17.574;2023-03-01T08:22:45;50;41;23
69144;PMS7003;56251;50.324;17.574;2023-03-01T08:23:42;36;33;22
69144;PMS7003;56251;50.324;17.574;2023-03-01T08:25:51;38;35;18
69144;PMS7003;56251;50.324;17.574;2023-03-01T08:26:49;35;32;22
69144;PMS7003;56251;50.324;17.574;2023-03-01T08:28:59;48;38;24
69144;PMS7003;56251;50.324;17.574;2023-03-01T08:29:55;52;44;25
69144;PMS7003;56251;50.324;17.574;2023-03-01T08:32:06;53;39;23
69144;PMS7003;56251;50.324;17.574;2023-03-01T08:33:02;53;39;23
69144;PMS7003;56251;50.324;17.574;2023-03-01T08:35:12;52;41;25
69144;PMS7003;56251;50.324;17.574;2023-03-01T08:36:08;46;40;21
69144;PMS7003;56251;50.324;17.574;2023-03-01T08:38:18;43;36;22
69144;PMS7003;56251;50.324;17.574;2023-03-01T08:39:15;51;39;27
69144;PMS7003;56251;50.324;17.574;2023-03-01T08:41:25;37;32;20
69144;PMS7003;56251;50.324;17.574;2023-03-01T08:42:23;41;35;24
69144;PMS7003;56251;50.324;17.574;2023-03-01T08:44:32;38;33;24
69144;PMS7003;56251;50.324;17.574;2023-03-01T08:45:30;40;35;23
69144;PMS7003;56251;50.324;17.574;2023-03-01T08:47:40;38;33;21
69144;PMS7003;56251;50.324;17.574;2023-03-01T08:48:41;37;34;22
69144;PMS7003;56251;50.324;17.574;2023-03-01T08:50:46;35;28;19
69144;PMS7003;56251;50.324;17.574;2023-03-01T08:51:48;40;34;23
69144;PMS7003;56251;50.324;17.574;2023-03-01T08:53:52;45;39;20
69144;PMS7003;56251;50.324;17.574;2023-03-01T08:54:54;44;36;22
69144;PMS7003;56251;50.324;17.574;2023-03-01T08:57:01;48;37;19
69144;PMS7003;56251;50.324;17.574;2023-03-01T08:58:01;34;29;20
69144;PMS7003;56251;50.324;17.574;2023-03-01T09:00:09;38;29;20
69144;PMS7003;56251;50.324;17.574;2023-03-01T09:01:08;42;30;17
69144;PMS7003;56251;50.324;17.574;2023-03-01T09:03:20;45;36;23
69144;PMS7003;56251;50.324;17.574;2023-03-01T09:04:14;42;34;23
69144;PMS7003;56251;50.324;17.574;2023-03-01T09:06:26;42;35;24
69144;PMS7003;56251;50.324;17.574;2023-03-01T09:07:22;42;35;24
69144;PMS7003;56251;50.324;17.574;2023-03-01T09:09:34;31;29;21
69144;PMS7003;56251;50.324;17.574;2023-03-01T09:10:30;48;40;23
69144;PMS7003;56251;50.324;17.574;2023-03-01T09:12:41;51;41;25
69144;PMS7003;56251;50.324;17.574;2023-03-01T09:13:36;47;41;21
69144;PMS7003;56251;50.324;17.574;2023-03-01T09:15:47;44;35;24
69144;PMS7003;56251;50.324;17.574;2023-03-01T09:16:43;35;32;22
69144;PMS7003;56251;50.324;17.574;2023-03-01T09:18:54;38;32;22
69144;PMS7003;56251;50.324;17.574;2023-03-01T09:19:50;32;30;20
69144;PMS7003;56251;50.324;17.574;2023-03-01T09:22:00;46;38;22
69144;PMS7003;56251;50.324;17.574;2023-03-01T09:23:02;39;35;24
69144;PMS7003;56251;50.324;17.574;2023-03-01T09:25:07;45;36;23
69144;PMS7003;56251;50.324;17.574;2023-03-01T09:26:10;47;38;23
69144;PMS7003;56251;50.324;17.574;2023-03-01T09:28:15;40;33;23
69144;PMS7003;56251;50.324;17.574;2023-03-01T09:29:17;45;35;22
69144;PMS7003;56251;50.324;17.574;2023-03-01T09:31:21;49;39;23
69144;PMS7003;56251;50.324;17.574;2023-03-01T09:32:24;43;33;21
69144;PMS7003;56251;50.324;17.574;2023-03-01T09:34:29;42;34;21
69144;PMS7003;56251;50.324;17.574;2023-03-01T09:35:30;31;30;19
69144;PMS7003;56251;50.324;17.574;2023-03-01T09:37:35;43;34;22
69144;PMS7003;56251;50.324;17.574;2023-03-01T09:38:36;38;33;20
69144;PMS7003;56251;50.324;17.574;2023-03-01T09:40:47;45;39;26
69144;PMS7003;56251;50.324;17.574;2023-03-01T09:41:58;45;39;26
69144;PMS7003;56251;50.324;17.574;2023-03-01T09:44:01;53;42;25
69144;PMS7003;56251;50.324;17.574;2023-03-01T09:45:11;31;26;19
69144;PMS7003;56251;50.324;17.574;2023-03-01T09:47:17;51;42;25
69144;PMS7003;56251;50.324;17.574;2023-03-01T09:48:20;62;47;28
69144;PMS7003;56251;50.324;17.574;2023-03-01T09:50:17;51;40;23
69144;PMS7003;56251;50.324;17.574;2023-03-01T09:51:32;44;37;22
69144;PMS7003;56251;50.324;17.574;2023-03-01T09:53:27;48;37;21
69144;PMS7003;56251;50.324;17.574;2023-03-01T09:54:39;40;36;24
69144;PMS7003;56251;50.324;17.574;2023-03-01T09:56:36;41;35;23
69144;PMS7003;56251;50.324;17.574;2023-03-01T09:57:47;53;41;25
69144;PMS7003;56251;50.324;17.574;2023-03-01T10:00:59;45;39;24
69144;PMS7003;56251;50.324;17.574;2023-03-01T10:06:44;51;40;25
69144;PMS7003;56251;50.324;17.574;2023-03-01T10:07:41;50;38;24
69144;PMS7003;56251;50.324;17.574;2023-03-01T10:09:50;52;41;28